Time;durP1;ratioP1;P1;durP2;ratioP2;P2;SDS_P1;SDS_P2;PMS_P1;PMS_P2;Temp;Humidity;BMP_temperature;BMP_pressure;BME280_temperature;BME280_humidity;BME280_pressure;Samples;Min_cycle;Max_cycle;Signal;HPM_P1;HPM_P2
2021/06/19 00:01:28;;;;;;;12.97;11.57;;;;;;;25.58;52.58;97697.78;8394293;28;20487;-65
2021/06/19 00:05:33;;;;;;;12.93;11.60;;;;;;;25.55;52.28;97696.31;8418671;28;20219;-65
2021/06/19 00:09:36;;;;;;;12.30;9.90;;;;;;;25.56;52.33;97699.78;8409934;28;20236;-65
2021/06/19 00:13:39;;;;;;;12.23;11.00;;;;;;;25.46;52.42;97702.63;8385193;28;20207;-65
2021/06/19 00:17:42;;;;;;;11.50;10.30;;;;;;;25.35;52.63;97708.28;8385061;28;20200;-65
2021/06/19 00:21:46;;;;;;;11.07;9.97;;;;;;;25.34;52.37;97711.91;8384799;28;20218;-65
2021/06/19 00:25:49;;;;;;;11.47;10.23;;;;;;;25.26;53.15;97714.56;8384699;28;20207;-65
2021/06/19 00:29:52;;;;;;;11.43;10.30;;;;;;;25.27;53.38;97713.59;8384790;28;20211;-65
2021/06/19 00:33:54;;;;;;;16.07;10.70;;;;;;;25.16;53.41;97717.38;8384393;28;20205;-65
2021/06/19 00:37:59;;;;;;;12.73;11.43;;;;;;;25.25;52.57;97723.53;8384418;28;20212;-65
2021/06/19 00:42:02;;;;;;;13.73;12.27;;;;;;;25.22;53.07;97731.78;8384307;28;20397;-65
2021/06/19 00:46:04;;;;;;;14.10;11.43;;;;;;;25.11;53.01;97724.97;8384194;28;20199;-65
2021/06/19 00:50:09;;;;;;;13.67;12.30;;;;;;;24.97;53.56;97739.72;8383732;28;20224;-65
2021/06/19 00:54:13;;;;;;;13.17;11.87;;;;;;;24.95;53.37;97739.88;8383678;28;20200;-65
2021/06/19 00:58:16;;;;;;;12.97;11.50;;;;;;;24.93;53.81;97744.50;8384015;28;20219;-65
2021/06/19 01:02:19;;;;;;;14.53;11.13;;;;;;;24.87;53.70;97747.81;8383863;28;20485;-65
2021/06/19 01:06:22;;;;;;;14.50;11.63;;;;;;;24.80;53.89;97753.94;8383508;28;20233;-65
2021/06/19 01:10:26;;;;;;;15.43;13.27;;;;;;;24.54;54.17;97749.56;8399317;28;20242;-65
2021/06/19 01:14:29;;;;;;;15.03;13.43;;;;;;;24.65;53.82;97774.91;8416452;28;20513;-65
2021/06/19 01:18:31;;;;;;;14.60;13.10;;;;;;;24.59;54.23;97785.16;8416328;28;20371;-65
2021/06/19 01:22:35;;;;;;;21.70;13.97;;;;;;;24.37;54.89;97767.22;8416049;28;20203;-65
2021/06/19 01:26:40;;;;;;;13.93;12.63;;;;;;;24.52;54.55;97778.88;8416088;28;20202;-65
2021/06/19 01:30:43;;;;;;;17.03;13.33;;;;;;;24.61;53.94;97777.06;8415837;28;20227;-65
2021/06/19 01:34:46;;;;;;;16.53;14.07;;;;;;;24.57;54.03;97770.44;8415957;28;20498;-65
2021/06/19 01:38:50;;;;;;;14.43;12.93;;;;;;;24.65;54.33;97774.91;8415636;28;20200;-65
2021/06/19 01:42:55;;;;;;;15.03;13.57;;;;;;;24.60;54.31;97772.78;8415603;28;20207;-65
2021/06/19 01:46:57;;;;;;;14.97;13.07;;;;;;;24.63;53.86;97763.66;8415660;28;20207;-65
2021/06/19 01:51:00;;;;;;;14.50;13.03;;;;;;;24.72;53.57;97765.34;8415529;28;20222;-65
2021/06/19 01:55:04;;;;;;;14.57;12.77;;;;;;;24.68;53.83;97764.03;8415389;28;20203;-65
2021/06/19 01:59:08;;;;;;;14.53;13.13;;;;;;;24.69;53.89;97763.00;8415616;28;20210;-65
2021/06/19 02:03:11;;;;;;;14.43;13.07;;;;;;;24.55;54.05;97754.72;8397066;28;20235;-65
2021/06/19 02:07:13;;;;;;;15.50;12.47;;;;;;;24.57;54.00;97762.50;8382880;28;20228;-68
2021/06/19 02:11:16;;;;;;;15.10;12.70;;;;;;;24.52;54.59;97759.50;8360742;28;20240;-69
2021/06/19 02:15:21;;;;;;;14.80;13.30;;;;;;;24.49;54.31;97757.16;8349892;28;20200;-68
2021/06/19 02:19:24;;;;;;;17.30;14.00;;;;;;;24.46;54.75;97768.88;8349954;28;20209;-65
2021/06/19 02:23:27;;;;;;;17.23;13.10;;;;;;;24.47;54.40;97772.38;8349609;28;20192;-65
2021/06/19 02:27:30;;;;;;;15.87;14.10;;;;;;;24.44;54.80;97775.31;8349118;28;20200;-65
2021/06/19 02:31:34;;;;;;;17.10;12.90;;;;;;;24.38;54.79;97782.09;8349219;28;20232;-65
2021/06/19 02:35:39;;;;;;;14.73;13.23;;;;;;;24.29;55.07;97775.91;8349115;28;20275;-65
2021/06/19 02:39:41;;;;;;;14.70;13.23;;;;;;;24.34;54.74;97781.56;8349120;28;20201;-65
2021/06/19 02:43:44;;;;;;;15.47;13.70;;;;;;;24.34;55.00;97780.75;8348998;28;20425;-65
2021/06/19 02:47:50;;;;;;;16.90;13.87;;;;;;;24.26;55.30;97797.44;8348889;28;20201;-65
2021/06/19 02:51:53;;;;;;;16.13;13.77;;;;;;;24.23;55.12;97795.09;8348802;28;20229;-65
2021/06/19 02:55:56;;;;;;;15.43;13.90;;;;;;;24.25;55.00;97794.94;8348957;28;20204;-65
2021/06/19 02:59:59;;;;;;;17.40;14.10;;;;;;;24.27;54.84;97791.13;8349045;28;20201;-65
2021/06/19 03:04:03;;;;;;;15.67;14.07;;;;;;;24.32;54.45;97791.50;8400453;28;20211;-65
2021/06/19 03:08:06;;;;;;;17.27;14.97;;;;;;;24.30;55.28;97801.41;8415387;28;20222;-65
2021/06/19 03:12:10;;;;;;;15.60;13.73;;;;;;;24.24;54.98;97799.41;8439097;28;20239;-65
2021/06/19 03:16:13;;;;;;;16.10;14.37;;;;;;;24.26;55.02;97797.44;8452928;28;20201;-65
2021/06/19 03:20:19;;;;;;;17.53;14.70;;;;;;;24.29;55.17;97793.63;8454660;28;20221;-65
2021/06/19 03:24:22;;;;;;;14.97;13.53;;;;;;;24.27;54.96;97791.13;8454823;28;20515;-65
2021/06/19 03:28:25;;;;;;;18.70;13.43;;;;;;;24.30;54.90;97793.47;8454679;28;20206;-65
2021/06/19 03:32:28;;;;;;;14.70;13.00;;;;;;;24.38;54.56;97787.38;8453971;28;20233;-65
2021/06/19 03:36:32;;;;;;;14.90;13.33;;;;;;;24.38;54.95;97793.50;8453919;28;20199;-65
2021/06/19 03:40:36;;;;;;;16.13;13.97;;;;;;;24.32;55.20;97794.13;8453767;28;20209;-65
2021/06/19 03:44:39;;;;;;;15.70;13.67;;;;;;;24.44;54.75;97796.50;8454047;28;20221;-65
2021/06/19 03:48:41;;;;;;;14.93;12.73;;;;;;;24.48;54.74;97801.31;8453634;28;20206;-65
2021/06/19 03:52:46;;;;;;;14.33;12.57;;;;;;;24.62;54.89;97813.16;8453241;28;20233;-65
2021/06/19 03:56:48;;;;;;;14.40;12.90;;;;;;;24.61;54.70;97814.13;8453414;28;20205;-65
2021/06/19 04:00:51;;;;;;;14.90;13.40;;;;;;;24.63;54.66;97817.44;8452919;28;20199;-65
2021/06/19 04:04:54;;;;;;;14.20;12.90;;;;;;;24.69;54.48;97823.91;8385586;28;20203;-65
2021/06/19 04:08:58;;;;;;;14.73;13.23;;;;;;;24.71;54.59;97828.06;8385253;28;20250;-65
2021/06/19 04:13:01;;;;;;;15.17;13.03;;;;;;;24.72;54.56;97826.25;8385196;28;20227;-65
2021/06/19 04:17:04;;;;;;;14.77;12.80;;;;;;;24.78;54.50;97833.53;8385074;28;20215;-65
2021/06/19 04:21:08;;;;;;;16.13;13.53;;;;;;;24.81;54.42;97837.66;8385151;28;20286;-65
2021/06/19 04:25:14;;;;;;;15.37;13.77;;;;;;;24.82;54.60;97836.69;8384372;28;20200;-65
2021/06/19 04:29:17;;;;;;;15.83;12.53;;;;;;;24.89;54.46;97833.22;8384851;28;20203;-65
2021/06/19 04:33:19;;;;;;;14.43;11.33;;;;;;;24.88;54.86;97842.16;8384627;28;20228;-65
2021/06/19 04:37:26;;;;;;;15.53;12.60;;;;;;;24.84;54.47;97840.81;8384871;28;20230;-65
2021/06/19 04:41:34;;;;;;;16.57;12.70;;;;;;;24.90;54.64;97844.66;8384577;28;20211;-65
2021/06/19 04:45:37;;;;;;;16.57;13.40;;;;;;;24.88;54.71;97859.88;8384574;28;20207;-65
2021/06/19 04:49:40;;;;;;;14.77;13.07;;;;;;;24.61;55.43;97860.94;8383998;28;20203;-65
2021/06/19 04:53:43;;;;;;;16.43;14.27;;;;;;;24.59;55.61;97866.41;8384306;28;20228;-65
2021/06/19 04:57:50;;;;;;;15.10;13.37;;;;;;;24.77;54.85;97879.56;8383773;28;20199;-65
2021/06/19 05:01:53;;;;;;;18.10;14.73;;;;;;;24.69;55.26;97882.97;8400324;28;20198;-65
2021/06/19 05:05:55;;;;;;;16.40;14.57;;;;;;;24.53;55.67;97882.94;8450113;28;20328;-65
2021/06/19 05:09:58;;;;;;;19.30;15.37;;;;;;;24.35;56.36;97869.72;8450391;28;20226;-65
2021/06/19 05:14:03;;;;;;;20.57;14.40;;;;;;;24.62;55.63;97862.59;8449948;28;20289;-65
2021/06/19 05:18:06;;;;;;;16.63;14.97;;;;;;;24.58;55.87;97870.06;8450200;28;20209;-64
2021/06/19 05:22:09;;;;;;;15.77;14.17;;;;;;;24.64;55.85;97876.53;8449609;28;20206;-65
2021/06/19 05:26:15;;;;;;;17.47;15.77;;;;;;;24.49;56.26;97877.09;8419815;28;20486;-65
2021/06/19 05:30:20;;;;;;;15.90;14.30;;;;;;;24.77;55.53;97883.03;8400956;28;20199;-65
2021/06/19 05:34:23;;;;;;;16.97;14.87;;;;;;;24.77;55.75;97885.69;8393684;28;20218;-65
2021/06/19 05:38:26;;;;;;;17.80;15.20;;;;;;;24.86;55.31;97885.69;8390679;28;20198;-65
2021/06/19 05:42:29;;;;;;;16.73;15.03;;;;;;;24.89;55.35;97898.63;8386958;28;20402;-65
2021/06/19 05:46:33;;;;;;;19.27;15.43;;;;;;;24.87;55.88;97904.06;8391083;28;20199;-65
2021/06/19 05:50:36;;;;;;;23.77;16.40;;;;;;;24.48;56.80;97901.06;8386296;28;20567;-65
2021/06/19 05:54:38;;;;;;;16.97;14.87;;;;;;;24.69;56.46;97901.50;8391037;28;20227;-65
2021/06/19 05:58:41;;;;;;;17.50;15.37;;;;;;;24.34;57.54;97899.84;8398390;28;20214;-65
2021/06/19 06:02:45;;;;;;;20.93;16.10;;;;;;;24.70;56.65;97907.66;8403626;28;20207;-65
2021/06/19 06:06:48;;;;;;;23.47;16.10;;;;;;;24.63;56.49;97904.78;8414614;28;20225;-65
2021/06/19 06:10:53;;;;;;;17.27;15.00;;;;;;;24.59;56.43;97908.75;8387690;28;20507;-65
2021/06/19 06:14:56;;;;;;;18.23;14.93;;;;;;;24.68;56.72;97914.94;8415462;28;20231;-66
2021/06/19 06:19:00;;;;;;;15.50;13.90;;;;;;;25.01;55.65;97930.94;8414633;28;20488;-66
2021/06/19 06:23:02;;;;;;;16.10;13.20;;;;;;;25.17;55.58;97941.59;8414580;28;20217;-66
2021/06/19 06:27:06;;;;;;;14.77;13.20;;;;;;;25.06;56.03;97940.06;8414808;28;20272;-66
2021/06/19 06:31:09;;;;;;;17.30;14.80;;;;;;;25.29;55.99;97939.50;8414620;28;20201;-66
2021/06/19 06:35:14;;;;;;;16.83;12.40;;;;;;;25.42;55.30;97954.91;8414384;28;20227;-66
2021/06/19 06:39:17;;;;;;;14.73;11.73;;;;;;;25.49;55.54;97966.53;8414723;28;20196;-66
2021/06/19 06:43:20;;;;;;;14.97;11.77;;;;;;;25.59;55.66;97969.88;8414391;28;20204;-66
2021/06/19 06:47:23;;;;;;;15.30;11.57;;;;;;;25.62;55.75;97966.06;8414348;28;20199;-66
2021/06/19 06:51:27;;;;;;;16.70;11.43;;;;;;;25.66;55.53;97957.59;8418860;28;20207;-66
2021/06/19 06:55:30;;;;;;;12.70;10.63;;;;;;;25.87;54.70;97954.47;8416658;28;20317;-66
2021/06/19 06:59:33;;;;;;;12.83;11.30;;;;;;;25.83;54.22;97949.69;8407277;28;20200;-65
2021/06/19 07:03:36;;;;;;;17.77;11.93;;;;;;;25.87;54.13;97964.25;8430398;28;20199;-65
2021/06/19 07:07:41;;;;;;;18.43;10.93;;;;;;;26.03;53.28;97974.09;8402558;28;20216;-65
2021/06/19 07:11:43;;;;;;;17.83;10.90;;;;;;;26.56;51.99;97971.84;8403128;28;20241;-65
2021/06/19 07:15:46;;;;;;;14.03;9.90;;;;;;;26.26;53.54;97975.06;8386631;28;20229;-65
2021/06/19 07:19:49;;;;;;;13.63;8.90;;;;;;;26.26;53.37;97968.94;8387014;28;20202;-65
2021/06/19 07:23:53;;;;;;;12.47;7.87;;;;;;;26.63;52.40;97967.56;8400425;28;20197;-65
2021/06/19 07:27:58;;;;;;;16.43;7.87;;;;;;;26.80;51.66;97963.03;8419346;28;20205;-65
2021/06/19 07:32:01;;;;;;;13.00;7.40;;;;;;;26.28;52.71;97974.91;8403980;28;20200;-65
2021/06/19 07:36:04;;;;;;;13.73;6.53;;;;;;;26.62;51.95;97972.06;8388625;28;20220;-65
2021/06/19 07:40:10;;;;;;;16.10;7.00;;;;;;;26.79;51.07;97962.22;8386074;28;20201;-65
2021/06/19 07:44:14;;;;;;;14.27;7.60;;;;;;;26.78;51.76;97965.84;8386324;28;20210;-65
2021/06/19 07:48:17;;;;;;;21.90;8.80;;;;;;;26.78;52.01;97967.69;8389641;28;20209;-65
2021/06/19 07:52:20;;;;;;;13.33;7.03;;;;;;;26.86;51.33;97965.81;8401629;28;20193;-65
2021/06/19 07:56:24;;;;;;;13.00;7.50;;;;;;;26.37;52.65;97957.97;8401770;28;20517;-65
2021/06/19 08:00:29;;;;;;;15.67;6.77;;;;;;;26.42;52.22;97965.41;8401347;28;20195;-65
2021/06/19 08:04:33;;;;;;;17.93;7.57;;;;;;;26.38;52.28;97967.59;8418752;28;20545;-65
2021/06/19 08:08:36;;;;;;;16.67;6.90;;;;;;;26.55;52.70;97959.59;8418866;28;20283;-65
2021/06/19 08:12:40;;;;;;;13.70;6.43;;;;;;;26.59;52.99;97964.41;8418369;28;20293;-65
2021/06/19 08:16:46;;;;;;;17.60;6.83;;;;;;;26.55;52.83;97954.28;8418044;28;20199;-65
2021/06/19 08:20:49;;;;;;;14.20;6.17;;;;;;;26.97;51.58;97967.28;8418307;28;20201;-65
2021/06/19 08:24:52;;;;;;;16.47;6.53;;;;;;;27.30;50.34;97965.34;8417889;28;20389;-65
2021/06/19 08:28:56;;;;;;;16.00;6.63;;;;;;;27.49;50.02;97971.19;8417784;28;20207;-65
2021/06/19 08:32:58;;;;;;;9.90;5.67;;;;;;;27.61;49.48;97982.28;8417487;28;20234;-65
2021/06/19 08:37:01;;;;;;;16.40;6.70;;;;;;;27.45;49.54;97977.88;8417748;28;20228;-65
2021/06/19 08:41:06;;;;;;;16.57;6.63;;;;;;;27.62;48.85;97962.66;8417457;28;20541;-65
2021/06/19 08:45:11;;;;;;;15.73;6.87;;;;;;;27.88;48.30;97968.47;8417414;28;20204;-66
2021/06/19 08:49:14;;;;;;;12.80;6.77;;;;;;;28.04;47.99;97959.50;8417134;28;20524;-65
2021/06/19 08:53:20;;;;;;;12.50;6.30;;;;;;;28.30;47.73;97958.31;8416886;28;20233;-65
2021/06/19 08:57:39;;;;;;;16.53;6.17;;;;;;;28.62;46.48;97948.34;8416816;28;20292;-67
2021/06/19 09:01:43;;;;;;;13.67;6.90;;;;;;;28.23;48.47;97936.88;8423648;28;20207;-66
2021/06/19 09:05:46;;;;;;;12.27;6.63;;;;;;;28.37;48.14;97947.72;8450479;28;20414;-66
2021/06/19 09:09:57;;;;;;;18.93;7.03;;;;;;;29.17;47.61;97935.56;8440312;28;20224;-65
2021/06/19 09:14:01;;;;;;;16.37;6.63;;;;;;;28.87;46.39;97926.75;8399490;28;20222;-65
2021/06/19 09:18:08;;;;;;;12.50;6.37;;;;;;;29.65;44.80;97933.19;8402488;28;20226;-66
2021/06/19 09:22:13;;;;;;;15.23;6.87;;;;;;;30.19;43.32;97927.28;8415460;28;20387;-65
2021/06/19 09:26:17;;;;;;;10.57;6.63;;;;;;;30.64;42.75;97918.97;8415815;28;20209;-66
2021/06/19 09:30:22;;;;;;;16.13;6.80;;;;;;;30.82;42.82;97920.28;8415568;28;20226;-65
2021/06/19 09:34:28;;;;;;;11.80;6.20;;;;;;;31.09;41.57;97924.78;8416016;28;20230;-66
2021/06/19 09:38:30;;;;;;;13.43;6.33;;;;;;;31.17;41.01;97927.25;8415768;28;20232;-65
2021/06/19 09:42:33;;;;;;;13.37;6.40;;;;;;;31.03;40.64;97914.84;8415459;28;20207;-65
2021/06/19 09:46:36;;;;;;;13.27;6.60;;;;;;;31.70;39.87;97910.53;8415346;28;20215;-65
2021/06/19 09:50:41;;;;;;;14.93;6.50;;;;;;;31.41;39.51;97909.00;8415656;28;20199;-65
2021/06/19 09:54:57;;;;;;;12.97;6.30;;;;;;;31.74;40.39;97908.25;8415534;28;20445;-65
2021/06/19 09:59:00;;;;;;;14.97;6.07;;;;;;;31.95;38.75;97896.53;8415494;28;20202;-65
2021/06/19 10:03:18;;;;;;;14.57;6.20;;;;;;;32.08;37.94;97893.88;8405875;28;20201;-65
2021/06/19 10:07:22;;;;;;;10.83;5.83;;;;;;;32.55;37.87;97885.72;8397789;28;20212;-66
2021/06/19 10:11:27;;;;;;;15.53;6.27;;;;;;;32.18;37.53;97882.72;8415050;28;20351;-66
2021/06/19 10:15:32;;;;;;;13.83;6.10;;;;;;;32.44;37.86;97881.00;8414938;28;20241;-69
2021/06/19 10:19:37;;;;;;;11.50;5.60;;;;;;;32.33;38.46;97893.22;8394814;28;20199;-66
2021/06/19 10:23:41;;;;;;;14.23;6.03;;;;;;;32.13;37.54;97883.34;8403191;28;20203;-65
2021/06/19 10:27:45;;;;;;;13.83;6.50;;;;;;;32.20;36.38;97877.97;8402085;28;20511;-65
2021/06/19 10:31:50;;;;;;;15.93;5.70;;;;;;;32.87;35.87;97873.25;8384426;28;20199;-66
2021/06/19 10:35:55;;;;;;;16.47;6.17;;;;;;;33.10;35.94;97877.25;8395354;28;20439;-66
2021/06/19 10:40:15;;;;;;;12.80;5.50;;;;;;;33.23;35.13;97874.53;8406711;28;20197;-66
2021/06/19 10:44:58;;;;;;;14.23;5.83;;;;;;;33.05;34.36;97867.19;8420275;28;20199;-66
2021/06/19 10:49:02;;;;;;;12.63;6.63;;;;;;;33.74;34.91;97863.88;8420369;28;20199;-66
2021/06/19 10:53:09;;;;;;;13.30;5.57;;;;;;;33.26;34.43;97867.91;8420854;28;20400;-66
2021/06/19 10:57:42;;;;;;;16.87;5.63;;;;;;;33.70;33.82;97868.88;8420959;28;20234;-66
2021/06/19 11:01:45;;;;;;;15.33;6.57;;;;;;;34.00;34.37;97857.44;8427685;28;20216;-65
2021/06/19 11:06:19;;;;;;;15.53;6.23;;;;;;;34.09;34.77;97851.56;8453822;28;20287;-65
2021/06/19 11:10:56;;;;;;;11.93;6.17;;;;;;;34.24;34.40;97853.94;8454429;28;20242;-65
2021/06/19 11:15:04;;;;;;;13.17;5.57;;;;;;;34.28;32.57;97839.00;8386779;28;20224;-65
2021/06/19 11:19:06;;;;;;;14.03;5.40;;;;;;;34.40;32.90;97838.25;8387067;28;20202;-65
2021/06/19 11:23:11;;;;;;;20.33;5.40;;;;;;;34.47;31.69;97839.81;8386532;28;20391;-65
2021/06/19 11:27:13;;;;;;;9.73;4.47;;;;;;;34.53;30.45;97832.72;8386568;28;20203;-65
2021/06/19 11:31:21;;;;;;;10.23;4.63;;;;;;;34.70;30.62;97816.00;8386098;28;20220;-65
2021/06/19 11:35:24;;;;;;;11.02;5.20;;;;;;;34.71;30.48;97810.41;8385655;28;20286;-65
2021/06/19 11:39:33;;;;;;;12.82;4.97;;;;;;;34.90;30.63;97800.44;8386423;28;20201;-65
2021/06/19 11:43:36;;;;;;;14.32;5.53;;;;;;;34.66;29.89;97794.91;8386463;28;20210;-66
2021/06/19 11:47:40;;;;;;;11.80;4.32;;;;;;;34.87;29.50;97792.81;8386018;28;20206;-65
2021/06/19 11:51:48;;;;;;;13.33;4.63;;;;;;;35.00;29.88;97795.31;8386503;28;20389;-65
2021/06/19 11:55:51;;;;;;;11.38;4.72;;;;;;;35.14;30.15;97790.53;8386237;28;20560;-65
2021/06/19 12:00:10;;;;;;;13.23;4.90;;;;;;;35.17;29.97;97782.03;8385760;28;20513;-65
2021/06/19 12:04:16;;;;;;;9.70;4.68;;;;;;;35.03;28.79;97775.19;8440188;28;20208;-65
2021/06/19 12:08:25;;;;;;;12.73;4.65;;;;;;;35.20;29.91;97778.06;8452952;28;20402;-65
2021/06/19 12:12:27;;;;;;;10.90;4.40;;;;;;;35.29;28.95;97765.09;8436528;28;20232;-65
2021/06/19 12:16:31;;;;;;;8.68;4.20;;;;;;;35.24;28.76;97753.16;8418533;28;20234;-66
2021/06/19 12:20:36;;;;;;;11.05;4.60;;;;;;;35.44;29.10;97735.84;8399022;28;20195;-65
2021/06/19 12:24:39;;;;;;;8.48;4.30;;;;;;;35.34;28.35;97728.38;8401436;28;20199;-65
2021/06/19 12:28:44;;;;;;;11.63;4.50;;;;;;;35.41;27.87;97729.06;8401223;28;20204;-65
2021/06/19 12:32:48;;;;;;;10.32;4.13;;;;;;;35.23;28.00;97735.38;8385430;28;20203;-65
2021/06/19 12:36:53;;;;;;;13.88;4.55;;;;;;;35.46;29.22;97732.94;8384989;28;20234;-72
2021/06/19 12:40:56;;;;;;;8.40;4.90;;;;;;;35.46;29.29;97728.34;8404662;28;20262;-66
2021/06/19 12:45:11;;;;;;;11.68;4.88;;;;;;;35.44;27.49;97725.09;8418103;28;20206;-66
2021/06/19 12:49:14;;;;;;;9.43;4.80;;;;;;;35.41;28.57;97710.22;8416430;28;20304;-65
2021/06/19 12:53:18;;;;;;;11.10;4.97;;;;;;;35.30;28.96;97702.97;8417522;28;20379;-66
2021/06/19 12:57:23;;;;;;;16.52;5.15;;;;;;;35.30;29.47;97694.91;8417632;28;20233;-66
2021/06/19 13:01:28;;;;;;;12.93;4.72;;;;;;;35.24;30.26;97696.66;8413591;28;20202;-66
2021/06/19 13:05:31;;;;;;;16.48;5.45;;;;;;;35.29;29.60;97705.88;8416908;28;20268;-66
2021/06/19 13:09:49;;;;;;;15.68;5.28;;;;;;;34.95;28.62;97710.97;8416351;28;20238;-65
2021/06/19 13:13:52;;;;;;;11.77;4.95;;;;;;;35.23;29.41;97704.94;8411171;28;20217;-65
2021/06/19 13:17:55;;;;;;;12.25;5.32;;;;;;;35.09;29.50;97704.34;8403175;28;20406;-65
2021/06/19 13:22:00;;;;;;;12.38;5.47;;;;;;;35.14;28.99;97693.66;8416541;28;20229;-66
2021/06/19 13:26:09;;;;;;;12.70;5.25;;;;;;;35.42;28.43;97697.59;8416090;28;20206;-66
2021/06/19 13:30:16;;;;;;;14.13;5.10;;;;;;;35.21;29.64;97690.91;8414853;28;20199;-66
2021/06/19 13:34:22;;;;;;;10.35;4.97;;;;;;;35.03;29.01;97689.09;8415785;28;20186;-66
2021/06/19 13:38:25;;;;;;;14.63;5.10;;;;;;;35.11;29.57;97688.78;8415606;28;20195;-65
2021/06/19 13:42:29;;;;;;;11.25;5.35;;;;;;;34.87;28.62;97679.84;8416023;28;20209;-66
2021/06/19 13:46:32;;;;;;;12.45;5.05;;;;;;;34.71;30.44;97684.03;8415811;28;20308;-66
2021/06/19 13:50:35;;;;;;;11.07;5.10;;;;;;;34.53;30.06;97678.69;8415901;28;20201;-66
2021/06/19 13:54:41;;;;;;;9.05;5.00;;;;;;;34.45;29.80;97680.63;8415743;28;20199;-65
2021/06/19 13:58:45;;;;;;;10.25;5.22;;;;;;;34.41;29.52;97675.97;8416039;28;20395;-66
2021/06/19 14:02:48;;;;;;;10.15;4.75;;;;;;;34.30;29.72;97672.16;8431531;28;20202;-66
2021/06/19 14:06:55;;;;;;;14.32;5.00;;;;;;;34.38;30.22;97674.53;8448733;28;20244;-65
2021/06/19 14:10:57;;;;;;;14.38;4.75;;;;;;;34.46;30.05;97668.84;8445818;28;20540;-66
2021/06/19 14:15:02;;;;;;;12.15;5.20;;;;;;;34.32;30.50;97680.81;8415619;28;20225;-66
2021/06/19 14:19:05;;;;;;;12.43;5.20;;;;;;;34.19;31.41;97665.69;8415477;28;20201;-66
2021/06/19 14:23:07;;;;;;;12.10;5.03;;;;;;;33.95;32.54;97666.59;8408113;28;20197;-68
2021/06/19 14:27:12;;;;;;;13.13;5.15;;;;;;;34.11;32.87;97654.41;8410714;28;20202;-69
2021/06/19 14:31:16;;;;;;;14.93;4.80;;;;;;;34.05;32.11;97656.16;8415440;28;20206;-67
2021/06/19 14:35:19;;;;;;;13.70;5.35;;;;;;;33.93;31.63;97658.78;8415364;28;20344;-65
2021/06/19 14:39:24;;;;;;;19.85;5.78;;;;;;;33.73;32.38;97655.50;8409223;28;20496;-66
2021/06/19 14:43:27;;;;;;;11.23;4.70;;;;;;;33.65;32.51;97659.31;8412166;28;20391;-65
2021/06/19 14:47:31;;;;;;;12.63;5.43;;;;;;;33.52;32.75;97652.19;8397762;28;20204;-65
2021/06/19 14:51:34;;;;;;;13.97;5.47;;;;;;;33.53;33.35;97651.16;8392281;28;20196;-65
2021/06/19 14:55:37;;;;;;;15.10;5.33;;;;;;;33.45;34.02;97648.75;8394177;28;20221;-65
2021/06/19 14:59:40;;;;;;;13.17;5.43;;;;;;;33.41;32.38;97642.19;8390721;28;20195;-65
2021/06/19 15:03:44;;;;;;;11.17;5.07;;;;;;;33.56;32.00;97641.81;8393992;28;20219;-65
2021/06/19 15:07:46;;;;;;;9.80;5.10;;;;;;;33.45;32.57;97633.47;8397104;28;20551;-65
2021/06/19 15:11:49;;;;;;;15.47;5.03;;;;;;;33.32;32.30;97625.56;8409299;28;20234;-65
2021/06/19 15:15:52;;;;;;;13.03;5.13;;;;;;;33.42;33.17;97619.69;8420262;28;20228;-74
2021/06/19 15:19:56;;;;;;;13.30;5.37;;;;;;;33.24;34.01;97615.94;8406435;28;20193;-71
2021/06/19 15:23:59;;;;;;;12.87;5.57;;;;;;;33.14;33.96;97615.63;8397690;28;20207;-73
2021/06/19 15:28:02;;;;;;;18.50;8.50;;;;;;;33.16;35.04;97608.16;8410209;28;20228;-73
2021/06/19 15:32:05;;;;;;;12.83;6.80;;;;;;;33.14;34.31;97596.84;8406242;28;20198;-66
2021/06/19 15:36:10;;;;;;;13.17;5.83;;;;;;;33.40;34.17;97603.00;8409055;28;20219;-67
2021/06/19 15:40:13;;;;;;;13.73;7.23;;;;;;;33.34;33.84;97595.81;8394788;28;20199;-67
2021/06/19 15:44:16;;;;;;;16.93;6.20;;;;;;;33.36;33.07;97597.25;8314403;28;20530;-67
2021/06/19 15:48:19;;;;;;;16.47;5.20;;;;;;;33.37;33.50;97603.44;8303201;28;20210;-66
2021/06/19 15:52:23;;;;;;;10.23;5.30;;;;;;;33.29;33.28;97597.31;8300159;28;20228;-67
2021/06/19 15:56:26;;;;;;;9.63;5.13;;;;;;;33.33;33.82;97588.81;8300666;28;20222;-67
2021/06/19 16:00:29;;;;;;;15.63;5.87;;;;;;;33.22;33.60;97585.00;8302544;28;20195;-67
2021/06/19 16:04:31;;;;;;;10.60;5.80;;;;;;;33.18;33.64;97579.25;8303473;28;20199;-67
2021/06/19 16:08:36;;;;;;;18.30;5.20;;;;;;;33.15;33.48;97582.41;8302232;28;20232;-67
2021/06/19 16:12:38;;;;;;;17.47;5.57;;;;;;;33.03;33.37;97576.91;8302276;28;20242;-67
2021/06/19 16:16:41;;;;;;;11.53;5.50;;;;;;;33.02;33.02;97579.81;8298199;28;20435;-67
2021/06/19 16:20:44;;;;;;;12.53;5.50;;;;;;;33.00;34.13;97572.00;8309885;28;20220;-67
2021/06/19 16:24:49;;;;;;;11.27;5.13;;;;;;;32.91;33.37;97563.41;8300620;28;20195;-67
2021/06/19 16:28:52;;;;;;;14.57;5.43;;;;;;;32.85;33.61;97561.63;8297466;28;20235;-67
2021/06/19 16:32:54;;;;;;;11.37;5.33;;;;;;;32.83;33.10;97550.28;8306575;28;20194;-67
2021/06/19 16:37:00;;;;;;;9.97;5.17;;;;;;;32.82;33.77;97558.53;8300954;28;20479;-66
2021/06/19 16:41:04;;;;;;;9.43;5.03;;;;;;;32.75;33.02;97558.63;8301108;28;20258;-66
2021/06/19 16:45:08;;;;;;;11.47;5.90;;;;;;;32.64;33.26;97567.38;8300273;28;20204;-67
2021/06/19 16:49:11;;;;;;;11.70;5.57;;;;;;;32.49;33.40;97567.66;8301738;28;20200;-66
2021/06/19 16:53:16;;;;;;;13.20;4.97;;;;;;;32.47;33.46;97567.88;8300478;28;20482;-66
2021/06/19 16:57:20;;;;;;;8.73;5.17;;;;;;;32.46;34.44;97558.22;8300628;28;20247;-66
2021/06/19 17:01:23;;;;;;;11.53;5.77;;;;;;;32.28;33.90;97550.91;8308877;28;20204;-66
2021/06/19 17:05:26;;;;;;;10.77;5.27;;;;;;;32.19;34.29;97536.13;8300087;28;20214;-67
2021/06/19 17:09:29;;;;;;;11.83;5.40;;;;;;;32.10;34.32;97543.63;8292965;28;20243;-74
2021/06/19 17:13:34;;;;;;;11.83;5.90;;;;;;;32.02;34.86;97537.69;8300923;28;20201;-65
2021/06/19 17:17:37;;;;;;;10.70;5.70;;;;;;;31.87;34.85;97535.28;8299241;28;20233;-65
2021/06/19 17:21:40;;;;;;;11.27;5.53;;;;;;;31.86;35.20;97537.16;8298328;28;20194;-65
2021/06/19 17:25:43;;;;;;;11.83;5.63;;;;;;;31.79;36.08;97540.91;8316742;28;20232;-66
2021/06/19 17:29:48;;;;;;;15.10;5.40;;;;;;;31.77;36.22;97541.09;8316365;28;20202;-66
2021/06/19 17:33:50;;;;;;;10.40;5.57;;;;;;;31.72;36.84;97538.25;8315781;28;20490;-65
2021/06/19 17:37:53;;;;;;;10.27;5.10;;;;;;;31.68;38.03;97545.06;8316439;28;20234;-65
2021/06/19 17:41:56;;;;;;;11.73;5.30;;;;;;;31.58;36.59;97540.16;8316081;28;20219;-66
2021/06/19 17:46:00;;;;;;;13.53;5.43;;;;;;;31.48;36.31;97531.78;8315900;28;20395;-66
2021/06/19 17:50:04;;;;;;;13.80;5.73;;;;;;;31.42;37.68;97529.94;8331892;28;20202;-66
2021/06/19 17:54:07;;;;;;;10.80;5.30;;;;;;;31.34;38.13;97523.78;8332537;28;20357;-66
2021/06/19 17:58:10;;;;;;;16.93;5.87;;;;;;;31.27;38.86;97517.63;8324237;28;20226;-65
2021/06/19 18:02:14;;;;;;;14.40;6.10;;;;;;;31.17;39.06;97520.75;8326981;28;20203;-65
2021/06/19 18:06:17;;;;;;;16.50;5.87;;;;;;;31.07;38.83;97517.72;8325512;28;20214;-66
2021/06/19 18:10:20;;;;;;;10.33;5.60;;;;;;;30.88;39.20;97516.69;8330567;28;20224;-65
2021/06/19 18:14:23;;;;;;;13.27;5.57;;;;;;;30.85;39.24;97508.25;8327417;28;20264;-70
2021/06/19 18:18:29;;;;;;;12.83;6.30;;;;;;;30.75;39.67;97508.69;8340293;28;20224;-66
2021/06/19 18:22:32;;;;;;;17.43;6.37;;;;;;;30.68;39.34;97499.88;8332537;28;20193;-66
2021/06/19 18:26:35;;;;;;;17.00;5.90;;;;;;;30.62;39.68;97492.69;8315468;28;20391;-66
2021/06/19 18:30:37;;;;;;;20.63;6.73;;;;;;;30.51;40.43;97492.25;8314727;28;20507;-66
2021/06/19 18:34:42;;;;;;;28.00;6.27;;;;;;;30.40;41.21;97480.34;8303481;28;20196;-66
2021/06/19 18:38:46;;;;;;;12.17;6.17;;;;;;;30.25;41.59;97470.88;8298393;28;20222;-67
2021/06/19 18:42:49;;;;;;;23.60;6.33;;;;;;;30.13;42.36;97462.66;8309379;28;20199;-67
2021/06/19 18:46:52;;;;;;;16.73;6.50;;;;;;;30.10;42.05;97455.06;8318922;28;20215;-85
2021/06/19 18:50:56;;;;;;;13.77;6.20;;;;;;;29.98;42.34;97447.66;8289049;28;20206;-67